createdAt,value
2023-08-23T00:03:40.313Z,99830.31
2023-08-23T00:06:08.312Z,99833.03
2023-08-23T00:08:36.288Z,99836.34
2023-08-23T00:11:04.323Z,99833.03
2023-08-23T00:13:32.314Z,99831.38
2023-08-23T00:16:00.269Z,99831.91
2023-08-23T00:18:28.232Z,99829.13
2023-08-23T00:20:57.533Z,99832.44
2023-08-23T00:23:25.550Z,99832.44
2023-08-23T00:25:53.570Z,99835.75
2023-08-23T00:28:21.596Z,99844.22
2023-08-23T00:30:53.469Z,99828.63
2023-08-23T00:33:21.713Z,99832.72
2023-08-23T00:35:49.815Z,99829.13
2023-08-23T00:38:19.271Z,99833.00
2023-08-23T00:40:47.268Z,99830.78
2023-08-23T00:43:15.414Z,99823.13
2023-08-23T00:45:43.711Z,99831.06
2023-08-23T00:48:13.361Z,99825.56
2023-08-23T00:50:42.040Z,99834.38
2023-08-23T00:53:10.285Z,99817.56
2023-08-23T00:55:39.680Z,99826.00
2023-08-23T00:58:07.653Z,99828.44
2023-08-23T01:00:35.652Z,99835.00
2023-08-23T01:03:03.655Z,99839.34
2023-08-23T01:05:35.852Z,99833.28
2023-08-23T01:08:05.926Z,99828.38
2023-08-23T01:10:37.302Z,99831.69
2023-08-23T01:13:10.205Z,99827.28
2023-08-23T01:15:38.254Z,99821.22
2023-08-23T01:18:06.734Z,99819.03
2023-08-23T01:20:34.734Z,99825.69
2023-08-23T01:23:11.631Z,99824.34
2023-08-23T01:25:41.726Z,99813.59
2023-08-23T01:28:09.765Z,99825.16
2023-08-23T01:30:37.732Z,99814.19
2023-08-23T01:33:08.238Z,99820.50
2023-08-23T01:35:40.263Z,99818.00
2023-08-23T01:38:09.638Z,99826.00
2023-08-23T01:40:37.693Z,99826.31
2023-08-23T01:43:06.019Z,99826.50
2023-08-23T01:45:34.064Z,99818.00
2023-08-23T01:48:02.077Z,99817.97
2023-08-23T01:50:30.207Z,99818.84
2023-08-23T01:52:58.183Z,99811.19
2023-08-23T01:55:27.997Z,99812.56
2023-08-23T01:57:55.950Z,99829.59
2023-08-23T02:00:23.878Z,99825.81
2023-08-23T02:02:51.916Z,99821.41
2023-08-23T02:05:19.957Z,99823.00
2023-08-23T02:07:48.013Z,99823.25
2023-08-23T02:10:16.077Z,99826.38
2023-08-23T02:12:45.430Z,99827.38
2023-08-23T02:15:13.404Z,99828.34
2023-08-23T02:17:41.453Z,99827.44
2023-08-23T02:20:10.022Z,99811.28
2023-08-23T02:22:38.035Z,99824.41
2023-08-23T02:25:06.748Z,99823.16
2023-08-23T02:27:34.680Z,99825.84
2023-08-23T02:30:04.156Z,99816.47
2023-08-23T02:32:32.215Z,99827.69
2023-08-23T02:35:00.402Z,99817.75
2023-08-23T02:37:28.332Z,99824.56
2023-08-23T02:39:59.073Z,99821.25
2023-08-23T02:42:27.524Z,99823.44
2023-08-23T02:44:55.529Z,99825.63
2023-08-23T02:47:25.066Z,99820.63
2023-08-23T02:49:53.072Z,99819.50
2023-08-23T02:52:21.304Z,99823.81
2023-08-23T02:54:49.294Z,99822.66
2023-08-23T02:57:17.281Z,99826.44
2023-08-23T02:59:45.387Z,99829.38
2023-08-23T03:02:13.469Z,99844.34
2023-08-23T03:04:42.910Z,99837.91
2023-08-23T03:07:10.946Z,99839.25
2023-08-23T03:09:38.930Z,99837.53
2023-08-23T03:12:07.761Z,99834.63
2023-08-23T03:14:35.783Z,99837.88
2023-08-23T03:17:03.755Z,99837.88
2023-08-23T03:19:32.279Z,99825.44
2023-08-23T03:22:01.906Z,99842.22
2023-08-23T03:24:29.921Z,99839.97
2023-08-23T03:26:57.879Z,99844.84
2023-08-23T03:29:26.126Z,99852.50
2023-08-23T03:31:54.089Z,99860.13
2023-08-23T03:34:22.051Z,99854.06
2023-08-23T03:36:50.991Z,99860.13
2023-08-23T03:39:20.348Z,99859.16
2023-08-23T03:41:49.043Z,99850.34
2023-08-23T03:44:17.054Z,99859.88
2023-08-23T03:46:45.081Z,99850.53
2023-08-23T03:49:13.069Z,99856.00
2023-08-23T03:51:41.118Z,99855.50
2023-08-23T03:54:09.067Z,99857.47
2023-08-23T03:56:38.703Z,99855.63
2023-08-23T03:59:06.701Z,99859.06
2023-08-23T04:01:35.093Z,99857.66
2023-08-23T04:04:03.224Z,99850.84
2023-08-23T04:06:31.265Z,99855.97
2023-08-23T04:08:59.295Z,99867.59
2023-08-23T04:11:27.305Z,99861.72
2023-08-23T04:13:56.631Z,99863.91
2023-08-23T04:16:24.737Z,99869.81
2023-08-23T04:18:52.716Z,99864.81
2023-08-23T04:21:20.708Z,99870.00
2023-08-23T04:23:48.729Z,99878.75
2023-08-23T04:26:16.738Z,99872.63
2023-08-23T04:28:44.706Z,99870.00
2023-08-23T04:31:14.065Z,99874.81
2023-08-23T04:33:43.213Z,99873.22
2023-08-23T04:36:11.207Z,99867.91
2023-08-23T04:38:39.207Z,99871.28
2023-08-23T04:41:07.229Z,99881.25
2023-08-23T04:43:35.224Z,99872.16
2023-08-23T04:46:03.273Z,99879.72
2023-08-23T04:48:32.763Z,99883.19
2023-08-23T04:51:00.794Z,99882.03
2023-08-23T04:53:28.884Z,99883.66
2023-08-23T04:55:58.046Z,99878.91
2023-08-23T04:58:28.615Z,99886.84
2023-08-23T05:00:59.906Z,99879.53
2023-08-23T05:03:27.976Z,99881.47
2023-08-23T05:05:57.311Z,99886.44
2023-08-23T05:08:25.304Z,99893.59
2023-08-23T05:10:53.927Z,99880.69
2023-08-23T05:13:21.931Z,99882.56
2023-08-23T05:15:53.475Z,99893.22
2023-08-23T05:18:21.575Z,99880.03
2023-08-23T05:20:54.004Z,99887.75
2023-08-23T05:23:23.499Z,99885.91
2023-08-23T05:25:52.385Z,99885.88
2023-08-23T05:28:20.610Z,99888.22
2023-08-23T05:30:48.617Z,99889.91
2023-08-23T05:33:16.661Z,99899.31
2023-08-23T05:35:45.167Z,99901.81
2023-08-23T05:38:13.165Z,99903.28
2023-08-23T05:40:42.505Z,99905.03
2023-08-23T05:43:10.557Z,99900.81
2023-08-23T05:45:38.599Z,99907.34
2023-08-23T05:48:07.462Z,99910.81
2023-08-23T05:50:35.707Z,99902.97
2023-08-23T05:53:10.235Z,99904.31
2023-08-23T05:55:38.699Z,99905.31
2023-08-23T05:58:08.052Z,99864.31
2023-08-23T06:00:36.282Z,99897.78
2023-08-23T06:03:04.410Z,99890.72
2023-08-23T06:05:32.409Z,99895.19
2023-08-23T06:08:00.376Z,99884.28
2023-08-23T06:10:28.381Z,99881.75
2023-08-23T06:12:56.344Z,99887.81
2023-08-23T06:15:25.960Z,99864.59
2023-08-23T06:17:54.423Z,99884.03
2023-08-23T06:20:22.407Z,99888.50
2023-08-23T06:22:50.524Z,99888.44
2023-08-23T06:25:18.462Z,99894.13
2023-08-23T06:27:46.853Z,99888.59
2023-08-23T06:30:17.354Z,99896.94
2023-08-23T06:32:48.508Z,99901.50
2023-08-23T06:35:17.256Z,99901.41
2023-08-23T06:37:45.714Z,99894.44
2023-08-23T06:40:14.127Z,99896.69
2023-08-23T06:42:42.241Z,99883.50
2023-08-23T06:45:11.048Z,99893.97
2023-08-23T06:47:39.279Z,99887.88
2023-08-23T06:50:12.900Z,99895.22
2023-08-23T06:52:42.696Z,99897.59
2023-08-23T06:55:10.987Z,99886.50
2023-08-23T06:57:40.942Z,99894.53
2023-08-23T07:00:10.124Z,99903.03
2023-08-23T07:02:38.156Z,99900.16
2023-08-23T07:05:08.279Z,99909.91
2023-08-23T07:07:36.232Z,99911.25
2023-08-23T07:10:14.344Z,99916.47
2023-08-23T07:12:52.639Z,99905.88
2023-08-23T07:15:20.737Z,99907.59
2023-08-23T07:17:49.074Z,99898.94
2023-08-23T07:20:18.725Z,99906.91
2023-08-23T07:22:46.696Z,99903.28
2023-08-23T07:25:14.624Z,99896.81
2023-08-23T07:27:42.641Z,99897.25
2023-08-23T07:30:11.565Z,99886.50
2023-08-23T07:32:39.580Z,99892.47
2023-08-23T07:35:09.193Z,99896.00
2023-08-23T07:37:39.571Z,99884.00
2023-08-23T07:40:10.933Z,99884.25
2023-08-23T07:42:39.229Z,99883.91
2023-08-23T07:45:08.347Z,99879.03
2023-08-23T07:47:36.645Z,99877.06
2023-08-23T07:50:05.509Z,99876.22
2023-08-23T07:52:33.630Z,99871.97
2023-08-23T07:55:02.971Z,99883.22
2023-08-23T07:57:31.078Z,99868.88
2023-08-23T08:00:01.134Z,99873.38
2023-08-23T08:02:32.517Z,99880.50
2023-08-23T08:05:00.790Z,99877.34
2023-08-23T08:08:00.739Z,99871.03
2023-08-23T08:10:21.212Z,99880.28
2023-08-23T08:12:49.228Z,99870.16
2023-08-23T08:15:17.568Z,99873.09
2023-08-23T08:17:46.180Z,99875.78
2023-08-23T08:20:14.610Z,99873.22
2023-08-23T08:22:43.330Z,99872.09
2023-08-23T08:25:14.164Z,99876.09
2023-08-23T08:27:43.999Z,99871.84
2023-08-23T08:30:12.696Z,99871.63
2023-08-23T08:32:40.773Z,99871.19
2023-08-23T08:35:09.550Z,99872.66
2023-08-23T08:37:37.562Z,99867.25
2023-08-23T08:40:07.861Z,99859.19
2023-08-23T08:42:35.995Z,99834.97
2023-08-23T08:45:06.397Z,99858.56
2023-08-23T08:47:34.440Z,99847.81
2023-08-23T08:50:02.506Z,99849.91
2023-08-23T08:52:30.903Z,99857.97
2023-08-23T08:54:59.886Z,99858.38
2023-08-23T08:57:28.606Z,99850.44
2023-08-23T08:59:56.828Z,99858.84
2023-08-23T09:02:26.827Z,99852.72
2023-08-23T09:04:54.762Z,99841.47
2023-08-23T09:07:22.754Z,99846.53
2023-08-23T09:09:50.794Z,99837.47
2023-08-23T09:12:18.877Z,99837.56
2023-08-23T09:14:50.567Z,99835.75
2023-08-23T09:17:24.101Z,99834.13
2023-08-23T09:19:53.749Z,99833.88
2023-08-23T09:22:22.169Z,99832.50
2023-08-23T09:24:50.501Z,99814.00
2023-08-23T09:27:31.132Z,99820.97
2023-08-23T09:30:06.329Z,99814.09
2023-08-23T09:32:34.508Z,99815.84
2023-08-23T09:35:12.725Z,99812.38
2023-08-23T09:37:43.922Z,99801.34
2023-08-23T09:40:21.761Z,99800.56
2023-08-23T09:42:49.791Z,99803.91
2023-08-23T09:45:19.410Z,99786.09
2023-08-23T09:47:49.487Z,99787.94
2023-08-23T09:50:19.928Z,99781.59
2023-08-23T09:52:48.964Z,99786.81
2023-08-23T09:55:16.965Z,99783.59
2023-08-23T09:57:45.329Z,99781.03
2023-08-23T10:00:14.305Z,99789.22
2023-08-23T10:02:42.375Z,99773.53
2023-08-23T10:05:12.936Z,99779.41
2023-08-23T10:07:42.482Z,99771.50
2023-08-23T10:10:11.523Z,99777.44
2023-08-23T10:12:41.387Z,99767.44
2023-08-23T10:15:10.750Z,99777.44
2023-08-23T10:17:38.743Z,99775.25
2023-08-23T10:20:08.061Z,99774.50
2023-08-23T10:22:36.713Z,99772.94
2023-08-23T10:25:16.454Z,99770.59
2023-08-23T10:27:47.316Z,99777.03
2023-08-23T10:30:20.863Z,99762.44
2023-08-23T10:32:49.338Z,99774.22
2023-08-23T10:35:29.915Z,99763.28
2023-08-23T10:37:58.822Z,99767.38
2023-08-23T10:40:30.663Z,99764.06
2023-08-23T10:42:58.684Z,99758.41
2023-08-23T10:45:26.846Z,99750.72
2023-08-23T10:47:54.991Z,99743.44
2023-08-23T10:50:23.072Z,99743.84
2023-08-23T10:52:51.472Z,99741.00
2023-08-23T10:55:19.687Z,99749.09
2023-08-23T10:57:49.306Z,99723.59
2023-08-23T11:00:18.421Z,99733.28
2023-08-23T11:02:46.402Z,99729.75
2023-08-23T11:05:14.388Z,99716.91
2023-08-23T11:07:42.380Z,99727.31
2023-08-23T11:10:11.565Z,99723.13
2023-08-23T11:12:40.478Z,99711.44
2023-08-23T11:15:10.840Z,99711.16
2023-08-23T11:17:39.130Z,99706.41
2023-08-23T11:20:09.619Z,99704.91
2023-08-23T11:22:37.660Z,99701.72
2023-08-23T11:25:06.208Z,99698.47
2023-08-23T11:27:34.808Z,99694.75
2023-08-23T11:30:03.949Z,99689.44
2023-08-23T11:32:33.568Z,99694.34
2023-08-23T11:35:02.231Z,99694.44
2023-08-23T11:37:30.571Z,99682.25
2023-08-23T11:39:58.684Z,99679.03
2023-08-23T11:42:27.408Z,99679.03
2023-08-23T11:44:56.334Z,99674.88
2023-08-23T11:47:26.697Z,99667.06
2023-08-23T11:49:56.081Z,99669.47
2023-08-23T11:52:24.125Z,99664.34
2023-08-23T11:54:52.602Z,99663.88
2023-08-23T11:57:20.623Z,99659.38
2023-08-23T11:59:48.770Z,99656.16
2023-08-23T12:02:16.769Z,99655.47
2023-08-23T12:04:45.366Z,99628.81
2023-08-23T12:07:14.917Z,99643.44
2023-08-23T12:09:42.861Z,99643.44
2023-08-23T12:12:10.936Z,99647.88
2023-08-23T12:14:38.903Z,99644.25
2023-08-23T12:17:07.024Z,99632.94
2023-08-23T12:19:37.781Z,99634.13
2023-08-23T12:22:07.854Z,99632.94
2023-08-23T12:24:37.287Z,99617.53
2023-08-23T12:27:06.171Z,99632.09
2023-08-23T12:29:34.221Z,99622.34
2023-08-23T12:32:02.303Z,99616.75
2023-08-23T12:34:30.325Z,99607.00
2023-08-23T12:36:58.287Z,99615.91
2023-08-23T12:39:26.282Z,99609.47
2023-08-23T12:41:55.648Z,99608.03
2023-08-23T12:44:23.619Z,99616.25
2023-08-23T12:46:51.592Z,99609.41
2023-08-23T12:49:19.615Z,99606.53
2023-08-23T12:51:47.715Z,99604.75
2023-08-23T12:54:15.730Z,99597.00
2023-08-23T12:56:43.716Z,99604.75
2023-08-23T12:59:13.061Z,99598.81
2023-08-23T13:01:41.068Z,99595.66
2023-08-23T13:04:09.107Z,99586.03
2023-08-23T13:06:37.043Z,99591.22
2023-08-23T13:09:06.454Z,99588.81
2023-08-23T13:11:34.513Z,99593.00
2023-08-23T13:14:02.534Z,99585.75
2023-08-23T13:16:31.976Z,99587.81
2023-08-23T13:19:00.371Z,99579.72
2023-08-23T13:21:28.449Z,99591.66
2023-08-23T13:23:59.475Z,99595.97
2023-08-23T13:26:28.241Z,99588.47
2023-08-23T13:28:56.214Z,99581.22
2023-08-23T13:31:25.293Z,99585.75
2023-08-23T13:33:54.761Z,99584.69
2023-08-23T13:36:22.714Z,99589.44
2023-08-23T13:38:50.689Z,99571.47
2023-08-23T13:41:18.666Z,99580.94
2023-08-23T13:43:46.619Z,99586.69
2023-08-23T13:46:14.639Z,99578.13
2023-08-23T13:48:45.253Z,99577.34
2023-08-23T13:51:14.756Z,99577.44
2023-08-23T13:53:44.764Z,99576.47
2023-08-23T13:56:14.121Z,99584.59
2023-08-23T13:58:42.232Z,99576.91
2023-08-23T14:01:10.253Z,99573.66
2023-08-23T14:03:38.234Z,99566.41
2023-08-23T14:06:06.544Z,99569.28
2023-08-23T14:08:35.875Z,99580.56
2023-08-23T14:11:04.157Z,99575.22
2023-08-23T14:13:32.167Z,99575.75
2023-08-23T14:16:00.250Z,99585.28
2023-08-23T14:18:28.364Z,99581.50
2023-08-23T14:20:56.673Z,99582.91
2023-08-23T14:23:24.634Z,99590.22
2023-08-23T14:25:54.017Z,99575.59
2023-08-23T14:28:22.086Z,99566.66
2023-08-23T14:30:50.195Z,99569.69
2023-08-23T14:33:18.262Z,99570.16
2023-08-23T14:38:15.402Z,99565.88
2023-08-23T14:40:44.086Z,99572.56
2023-08-23T14:43:13.481Z,99531.28
2023-08-23T14:45:42.475Z,99563.28
2023-08-23T14:48:10.480Z,99523.34
2023-08-23T14:50:38.454Z,99562.38
2023-08-23T14:53:06.631Z,99566.75
2023-08-23T14:55:35.685Z,99563.25
2023-08-23T14:58:03.725Z,99560.72
2023-08-23T15:00:34.506Z,99558.28
2023-08-23T15:03:03.972Z,99554.91
2023-08-23T15:05:32.116Z,99551.66
2023-08-23T15:08:00.071Z,99540.25
2023-08-23T15:10:28.082Z,99538.97
2023-08-23T15:12:56.121Z,99535.34
2023-08-23T15:15:24.100Z,99540.50
2023-08-23T15:17:53.575Z,99538.19
2023-08-23T15:20:21.745Z,99526.09
2023-08-23T15:22:49.712Z,99534.22
2023-08-23T15:25:18.423Z,99531.28
2023-08-23T15:27:49.769Z,99527.44
2023-08-23T15:30:17.957Z,99511.22
2023-08-23T15:32:46.503Z,99526.16
2023-08-23T15:35:15.869Z,99517.53
2023-08-23T15:37:43.985Z,99510.81
2023-08-23T15:40:12.806Z,99508.59
2023-08-23T15:42:41.714Z,99513.25
2023-08-23T15:45:10.361Z,99515.84
2023-08-23T15:47:38.409Z,99517.97
2023-08-23T15:50:07.409Z,99512.13
2023-08-23T15:52:36.820Z,99514.69
2023-08-23T15:55:05.679Z,99518.44
2023-08-23T15:57:33.720Z,99522.19
2023-08-23T16:00:01.704Z,99510.28
2023-08-23T16:02:29.697Z,99515.50
2023-08-23T16:04:57.692Z,99513.75
2023-08-23T16:07:26.074Z,99516.91
2023-08-23T16:09:55.987Z,99514.22
2023-08-23T16:12:24.557Z,99516.00
2023-08-23T16:14:52.538Z,99524.94
2023-08-23T16:17:20.524Z,99520.50
2023-08-23T16:19:48.511Z,99523.16
2023-08-23T16:22:16.489Z,99516.22
2023-08-23T16:24:44.479Z,99517.44
2023-08-23T16:27:13.846Z,99522.97
2023-08-23T16:29:41.848Z,99513.47
2023-08-23T16:32:09.874Z,99512.00
2023-08-23T16:34:37.988Z,99510.47
2023-08-23T16:37:06.134Z,99516.72
2023-08-23T16:39:34.166Z,99515.34
2023-08-23T16:42:02.139Z,99511.66
2023-08-23T16:44:31.456Z,99510.56
2023-08-23T16:46:59.477Z,99515.53
2023-08-23T16:49:27.482Z,99505.84
2023-08-23T16:51:56.501Z,99514.53
2023-08-23T16:54:24.546Z,99518.81
2023-08-23T16:56:52.543Z,99511.66
2023-08-23T16:59:20.488Z,99512.81
2023-08-23T17:01:49.938Z,99507.09
2023-08-23T17:04:17.961Z,99507.09
2023-08-23T17:06:48.237Z,99515.28
2023-08-23T17:09:16.912Z,99503.63
2023-08-23T17:11:45.614Z,99511.94
2023-08-23T17:14:13.595Z,99518.75
2023-08-23T17:16:41.826Z,99523.41
2023-08-23T17:19:11.212Z,99518.88
2023-08-23T17:21:39.560Z,99511.81
2023-08-23T17:24:07.781Z,99520.19
2023-08-23T17:26:35.819Z,99507.84
2023-08-23T17:29:03.761Z,99526.84
2023-08-23T17:31:31.811Z,99525.53
2023-08-23T17:33:59.846Z,99521.09
2023-08-23T17:36:29.180Z,99522.25
2023-08-23T17:38:57.405Z,99524.97
2023-08-23T17:41:25.441Z,99526.00
2023-08-23T17:43:54.953Z,99525.81
2023-08-23T17:46:36.260Z,99530.09
2023-08-23T17:49:04.644Z,99527.88
2023-08-23T17:51:34.050Z,99534.09
2023-08-23T17:54:02.065Z,99535.19
2023-08-23T17:56:30.028Z,99550.94
2023-08-23T17:58:58.032Z,99544.78
2023-08-23T18:01:25.994Z,99536.13
2023-08-23T18:03:53.962Z,99561.75
2023-08-23T18:06:21.921Z,99551.97
2023-08-23T18:08:51.256Z,99563.50
2023-08-23T18:11:19.268Z,99566.84
2023-08-23T18:13:47.262Z,99566.94
2023-08-23T18:16:15.274Z,99570.03
2023-08-23T18:18:43.311Z,99582.53
2023-08-23T18:21:11.290Z,99575.53
2023-08-23T18:23:39.299Z,99584.69
2023-08-23T18:26:08.672Z,99584.50
2023-08-23T18:28:36.667Z,99580.16
2023-08-23T18:31:04.764Z,99589.56
2023-08-23T18:33:36.279Z,99585.81
2023-08-23T18:36:04.428Z,99587.47
2023-08-23T18:38:32.438Z,99590.19
2023-08-23T18:41:03.753Z,99600.25
2023-08-23T18:43:33.401Z,99604.28
2023-08-23T18:46:01.386Z,99602.13
2023-08-23T18:48:29.431Z,99605.84
2023-08-23T18:51:00.738Z,99599.28
2023-08-23T18:53:28.821Z,99593.75
2023-08-23T18:55:56.791Z,99599.44
2023-08-23T18:58:24.804Z,99593.91
2023-08-23T19:00:58.619Z,99590.63
2023-08-23T19:03:27.567Z,99592.66
2023-08-23T19:05:55.728Z,99593.81
2023-08-23T19:08:23.729Z,99600.75
2023-08-23T19:10:51.683Z,99595.16
2023-08-23T19:13:19.696Z,99619.88
2023-08-23T19:15:47.686Z,99608.44
2023-08-23T19:18:17.126Z,99613.97
2023-08-23T19:20:45.103Z,99614.44
2023-08-23T19:23:13.085Z,99612.19
2023-08-23T19:25:42.055Z,99617.63
2023-08-23T19:28:10.058Z,99610.31
2023-08-23T19:30:38.025Z,99602.88
2023-08-23T19:33:06.195Z,99602.13
2023-08-23T19:35:42.931Z,99582.25
2023-08-23T19:38:10.943Z,99611.22
2023-08-23T19:40:38.978Z,99613.97
2023-08-23T19:43:07.048Z,99572.00
2023-08-23T19:45:35.139Z,99599.72
2023-08-23T19:48:20.519Z,99603.63
2023-08-23T19:50:53.157Z,99586.50
2023-08-23T19:53:21.114Z,99612.28
2023-08-23T19:55:49.065Z,99607.66
2023-08-23T19:58:19.889Z,99611.09
2023-08-23T20:00:47.908Z,99604.59
2023-08-23T20:03:16.077Z,99616.31
2023-08-23T20:05:45.370Z,99606.91
2023-08-23T20:08:14.703Z,99618.47
2023-08-23T20:10:42.705Z,99597.84
2023-08-23T20:13:10.695Z,99620.78
2023-08-23T20:15:38.666Z,99616.91
2023-08-23T20:18:06.760Z,99623.50
2023-08-23T20:20:35.131Z,99621.84
2023-08-23T20:23:03.094Z,99618.25
2023-08-23T20:25:32.476Z,99622.44
2023-08-23T20:28:00.426Z,99628.50
2023-08-23T20:30:28.408Z,99630.59
2023-08-23T20:32:56.461Z,99633.06
2023-08-23T20:35:24.726Z,99626.25
2023-08-23T20:37:52.730Z,99631.41
2023-08-23T20:40:21.685Z,99624.53
2023-08-23T20:42:51.386Z,99615.25
2023-08-23T20:45:21.195Z,99628.72
2023-08-23T20:47:49.808Z,99631.84
2023-08-23T20:50:18.088Z,99627.97
2023-08-23T20:52:46.508Z,99655.66
2023-08-23T20:55:14.849Z,99673.22
2023-08-23T20:57:42.821Z,99687.81
2023-08-23T21:00:13.021Z,99702.91
2023-08-23T21:02:41.017Z,99683.25
2023-08-23T21:05:09.143Z,99699.41
2023-08-23T21:07:37.167Z,99702.59
2023-08-23T21:10:05.956Z,99702.31
2023-08-23T21:12:33.887Z,99710.59
2023-08-23T21:15:01.897Z,99717.78
2023-08-23T21:17:31.323Z,99721.91
2023-08-23T21:19:59.345Z,99718.31
2023-08-23T21:22:27.394Z,99716.00
2023-08-23T21:24:55.368Z,99706.72
2023-08-23T21:27:23.370Z,99723.75
2023-08-23T21:29:51.897Z,99721.13
2023-08-23T21:32:19.896Z,99712.50
2023-08-23T21:34:49.228Z,99704.78
2023-08-23T21:37:17.223Z,99712.72
2023-08-23T21:39:45.197Z,99720.50
2023-08-23T21:42:13.168Z,99722.97
2023-08-23T21:44:42.531Z,99709.19
2023-08-23T21:47:11.537Z,99712.59
2023-08-23T21:49:39.486Z,99702.63
2023-08-23T21:52:08.850Z,99699.31
2023-08-23T21:54:36.806Z,99694.38
2023-08-23T21:57:05.170Z,99692.81
2023-08-23T21:59:33.158Z,99685.72
2023-08-23T22:02:01.136Z,99684.88
2023-08-23T22:04:29.180Z,99693.53
2023-08-23T22:06:57.142Z,99685.88
2023-08-23T22:09:26.877Z,99681.50
2023-08-23T22:11:55.028Z,99685.38
2023-08-23T22:14:23.394Z,99672.72
2023-08-23T22:16:51.407Z,99666.94
2023-08-23T22:19:19.810Z,99671.94
2023-08-23T22:21:48.614Z,99667.31
2023-08-23T22:24:16.570Z,99670.44
2023-08-23T22:26:45.973Z,99668.22
2023-08-23T22:29:13.956Z,99666.31
2023-08-23T22:31:41.925Z,99655.81
2023-08-23T22:34:09.893Z,99656.97
2023-08-23T22:36:37.855Z,99660.66
2023-08-23T22:39:05.899Z,99648.78
2023-08-23T22:41:33.892Z,99644.41
2023-08-23T22:44:03.242Z,99648.03
2023-08-23T22:46:32.624Z,99648.88
2023-08-23T22:49:01.334Z,99645.00
2023-08-23T22:51:29.452Z,99650.53
2023-08-23T22:53:57.387Z,99638.69
2023-08-23T22:56:25.379Z,99622.84
2023-08-23T22:58:53.408Z,99646.22
2023-08-23T23:01:22.859Z,99637.00
2023-08-23T23:03:50.974Z,99632.22
2023-08-23T23:06:19.007Z,99627.47
2023-08-23T23:08:47.132Z,99625.53
2023-08-23T23:11:15.150Z,99624.34
2023-08-23T23:13:43.141Z,99608.84
2023-08-23T23:16:11.267Z,99614.59
2023-08-23T23:18:41.214Z,99605.50
2023-08-23T23:21:09.185Z,99606.31
2023-08-23T23:23:37.176Z,99598.81
2023-08-23T23:26:05.109Z,99608.44
2023-08-23T23:28:33.076Z,99609.25
2023-08-23T23:31:06.525Z,99602.91
2023-08-23T23:33:34.730Z,99611.72
2023-08-23T23:36:04.088Z,99600.94
2023-08-23T23:38:32.174Z,99608.44
2023-08-23T23:41:03.430Z,99597.03
2023-08-23T23:43:31.490Z,99594.88
2023-08-23T23:45:59.797Z,99601.56
2023-08-23T23:48:27.919Z,99608.72
2023-08-23T23:50:55.894Z,99613.75
2023-08-23T23:53:25.363Z,99614.25
2023-08-23T23:55:53.299Z,99618.63
2023-08-23T23:58:21.261Z,99615.25
